createdAt,value
2024-03-18T00:02:00.668Z,100670.77
2024-03-18T00:04:47.368Z,100668.72
2024-03-18T00:07:34.001Z,100667.00
2024-03-18T00:10:21.056Z,100668.23
2024-03-18T00:13:07.220Z,100666.69
2024-03-18T00:16:11.766Z,100661.86
2024-03-18T00:18:58.216Z,100657.20
2024-03-18T00:21:46.702Z,100660.66
2024-03-18T00:24:34.097Z,100655.31
2024-03-18T00:27:20.223Z,100650.98
2024-03-18T00:30:32.190Z,100647.89
2024-03-18T00:33:18.716Z,100643.92
2024-03-18T00:36:07.670Z,100645.66
2024-03-18T00:38:54.199Z,100645.84
2024-03-18T00:41:46.967Z,100644.30
2024-03-18T00:44:33.358Z,100647.24
2024-03-18T00:47:22.392Z,100644.14
2024-03-18T00:50:12.212Z,100647.61
2024-03-18T00:52:58.577Z,100646.75
2024-03-18T00:55:44.807Z,100649.02
2024-03-18T00:58:31.188Z,100649.19
2024-03-18T01:01:17.663Z,100656.96
2024-03-18T01:04:05.227Z,100652.65
2024-03-18T01:06:51.348Z,100648.67
2024-03-18T01:09:38.829Z,100644.71
2024-03-18T01:12:25.854Z,100640.05
2024-03-18T01:20:17.306Z,100639.73
2024-03-18T01:23:05.844Z,100636.30
2024-03-18T01:25:52.818Z,100637.34
2024-03-18T01:28:39.932Z,100638.55
2024-03-18T01:36:05.969Z,100639.06
2024-03-18T01:38:52.404Z,100636.30
2024-03-18T01:41:39.056Z,100641.83
2024-03-18T01:44:25.360Z,100636.83
2024-03-18T01:51:50.956Z,100636.14
2024-03-18T01:54:37.212Z,100637.86
2024-03-18T01:57:25.240Z,100637.52
2024-03-18T02:00:24.336Z,100636.14
2024-03-18T02:03:10.591Z,100636.30
2024-03-18T02:05:57.002Z,100642.35
2024-03-18T02:08:43.655Z,100640.45
2024-03-18T02:11:31.479Z,100640.10
2024-03-18T02:14:18.547Z,100639.75
2024-03-18T02:17:05.082Z,100637.67
2024-03-18T02:19:51.538Z,100638.38
2024-03-18T02:22:39.237Z,100636.48
2024-03-18T02:25:25.298Z,100632.67
2024-03-18T02:28:11.882Z,100633.02
2024-03-18T02:31:02.061Z,100631.64
2024-03-18T02:33:48.605Z,100627.34
2024-03-18T02:36:36.533Z,100625.79
2024-03-18T02:39:23.501Z,100625.60
2024-03-18T02:42:10.133Z,100621.99
2024-03-18T02:45:24.798Z,100621.64
2024-03-18T02:48:11.216Z,100622.16
2024-03-18T02:50:59.001Z,100626.98
2024-03-18T02:53:47.703Z,100620.25
2024-03-18T02:56:35.043Z,100618.52
2024-03-18T02:59:22.120Z,100621.11
2024-03-18T03:02:09.043Z,100620.07
2024-03-18T03:04:55.482Z,100622.30
2024-03-18T03:07:44.158Z,100620.06
2024-03-18T03:10:32.299Z,100617.98
2024-03-18T03:13:18.573Z,100618.67
2024-03-18T03:16:05.689Z,100617.29
2024-03-18T03:28:50.195Z,100619.01
2024-03-18T03:31:36.438Z,100615.04
2024-03-18T03:34:22.877Z,100616.41
2024-03-18T03:37:09.096Z,100616.39
2024-03-18T03:39:55.533Z,100617.08
2024-03-18T03:42:42.631Z,100624.65
2024-03-18T03:45:28.942Z,100625.85
2024-03-18T03:48:15.360Z,100625.33
2024-03-18T03:51:58.431Z,100621.52
2024-03-18T03:54:46.656Z,100625.12
2024-03-18T03:57:32.870Z,100620.61
2024-03-18T04:00:20.149Z,100620.41
2024-03-18T04:03:06.958Z,100618.84
2024-03-18T04:05:55.526Z,100614.16
2024-03-18T04:08:41.804Z,100614.50
2024-03-18T04:11:27.838Z,100615.34
2024-03-18T04:14:39.113Z,100618.25
2024-03-18T04:17:27.141Z,100618.06
2024-03-18T04:20:19.773Z,100614.24
2024-03-18T04:23:06.388Z,100617.66
2024-03-18T04:25:53.192Z,100620.55
2024-03-18T04:28:39.186Z,100623.77
2024-03-18T04:31:25.483Z,100625.27
2024-03-18T04:34:11.582Z,100619.19
2024-03-18T04:36:58.036Z,100618.97
2024-03-18T04:39:46.660Z,100625.29
2024-03-18T04:42:34.157Z,100623.20
2024-03-18T04:45:23.256Z,100622.97
2024-03-18T04:48:11.550Z,100620.70
2024-03-18T04:50:57.889Z,100621.85
2024-03-18T04:53:44.239Z,100624.58
2024-03-18T04:56:32.806Z,100624.56
2024-03-18T04:59:18.872Z,100627.51
2024-03-18T05:02:06.112Z,100627.71
2024-03-18T05:04:53.272Z,100622.95
2024-03-18T05:07:41.236Z,100625.69
2024-03-18T05:14:51.976Z,100622.44
2024-03-18T05:17:38.325Z,100618.63
2024-03-18T05:20:24.741Z,100620.31
2024-03-18T05:23:14.360Z,100617.38
2024-03-18T05:26:00.720Z,100623.23
2024-03-18T05:28:47.091Z,100623.72
2024-03-18T05:31:33.436Z,100625.79
2024-03-18T05:34:19.842Z,100624.95
2024-03-18T05:37:07.496Z,100626.58
2024-03-18T05:39:54.464Z,100622.55
2024-03-18T05:42:40.964Z,100624.02
2024-03-18T05:45:27.317Z,100624.83
2024-03-18T05:48:13.273Z,100629.89
2024-03-18T05:50:59.483Z,100631.33
2024-03-18T05:53:46.044Z,100634.60
2024-03-18T06:01:22.345Z,100641.52
2024-03-18T06:04:12.869Z,100643.44
2024-03-18T06:07:03.795Z,100639.98
2024-03-18T06:09:50.261Z,100638.64
2024-03-18T06:12:36.921Z,100632.33
2024-03-18T06:15:23.460Z,100634.10
2024-03-18T06:18:11.966Z,100629.48
2024-03-18T06:20:58.107Z,100630.52
2024-03-18T06:23:52.140Z,100627.61
2024-03-18T06:26:38.145Z,100627.11
2024-03-18T06:29:24.892Z,100625.73
2024-03-18T06:32:11.309Z,100623.88
2024-03-18T06:34:57.602Z,100622.34
2024-03-18T06:37:44.216Z,100619.08
2024-03-18T06:40:30.876Z,100618.92
2024-03-18T06:43:17.119Z,100617.07
2024-03-18T06:46:03.280Z,100620.02
2024-03-18T06:48:49.877Z,100616.08
2024-03-18T06:51:36.487Z,100612.64
2024-03-18T06:54:24.989Z,100612.81
2024-03-18T06:57:12.549Z,100614.90
2024-03-18T07:00:01.918Z,100614.56
2024-03-18T07:02:51.299Z,100614.05
2024-03-18T07:05:37.397Z,100615.77
2024-03-18T07:08:23.630Z,100613.70
2024-03-18T07:11:10.898Z,100610.09
2024-03-18T07:13:57.284Z,100609.57
2024-03-18T07:16:43.608Z,100607.66
2024-03-18T07:19:30.161Z,100607.31
2024-03-18T07:22:16.536Z,100606.95
2024-03-18T07:25:04.753Z,100610.04
2024-03-18T07:27:51.298Z,100607.80
2024-03-18T07:30:38.089Z,100610.54
2024-03-18T07:33:25.087Z,100609.67
2024-03-18T07:36:11.037Z,100611.02
2024-03-18T07:39:01.318Z,100604.09
2024-03-18T07:41:50.097Z,100604.17
2024-03-18T07:44:36.292Z,100608.40
2024-03-18T07:47:25.301Z,100604.36
2024-03-18T07:50:13.464Z,100602.42
2024-03-18T07:53:00.036Z,100598.75
2024-03-18T07:55:47.652Z,100596.33
2024-03-18T07:58:35.036Z,100600.15
2024-03-18T08:01:20.970Z,100596.44
2024-03-18T08:04:07.288Z,100596.13
2024-03-18T08:06:53.348Z,100591.67
2024-03-18T08:09:40.065Z,100594.76
2024-03-18T08:12:27.267Z,100592.36
2024-03-18T08:15:16.497Z,100590.65
2024-03-18T08:18:02.897Z,100587.73
2024-03-18T08:20:50.817Z,100583.22
2024-03-18T08:23:37.351Z,100580.56
2024-03-18T08:26:24.403Z,100580.36
2024-03-18T08:29:10.450Z,100582.71
2024-03-18T08:31:56.747Z,100580.59
2024-03-18T08:34:58.504Z,100579.31
2024-03-18T08:37:46.030Z,100574.39
2024-03-18T08:40:32.644Z,100573.48
2024-03-18T08:43:19.226Z,100575.70
2024-03-18T08:46:08.187Z,100570.75
2024-03-18T08:48:54.520Z,100570.90
2024-03-18T08:51:43.041Z,100571.83
2024-03-18T08:54:31.852Z,100571.33
2024-03-18T08:57:18.025Z,100573.96
2024-03-18T09:00:07.235Z,100573.02
2024-03-18T09:02:53.527Z,100577.58
2024-03-18T09:05:39.993Z,100578.11
2024-03-18T09:08:25.996Z,100574.62
2024-03-18T09:11:14.802Z,100573.98
2024-03-18T09:14:01.072Z,100571.05
2024-03-18T09:16:46.987Z,100568.78
2024-03-18T09:19:41.581Z,100569.27
2024-03-18T09:22:27.788Z,100568.13
2024-03-18T09:25:14.797Z,100565.08
2024-03-18T09:28:03.380Z,100564.27
2024-03-18T09:31:04.836Z,100568.09
2024-03-18T09:33:51.417Z,100565.86
2024-03-18T09:36:37.669Z,100565.08
2024-03-18T09:39:25.809Z,100561.43
2024-03-18T09:42:12.698Z,100561.93
2024-03-18T09:45:03.638Z,100558.29
2024-03-18T09:47:52.880Z,100560.35
2024-03-18T09:50:43.093Z,100558.33
2024-03-18T09:53:30.966Z,100555.20
2024-03-18T09:56:17.662Z,100551.02
2024-03-18T09:59:04.020Z,100549.40
2024-03-18T10:01:50.206Z,100549.34
2024-03-18T10:04:38.654Z,100547.17
2024-03-18T10:07:25.042Z,100548.20
2024-03-18T10:10:17.456Z,100543.73
2024-03-18T10:13:05.645Z,100545.73
2024-03-18T10:15:53.427Z,100540.19
2024-03-18T10:18:43.533Z,100541.39
2024-03-18T10:21:30.089Z,100535.88
2024-03-18T10:24:16.425Z,100535.66
2024-03-18T10:27:02.969Z,100536.84
2024-03-18T10:29:49.778Z,100534.79
2024-03-18T10:32:37.230Z,100536.39
2024-03-18T10:35:27.679Z,100533.55
2024-03-18T10:38:26.176Z,100534.53
2024-03-18T10:41:19.242Z,100538.15
2024-03-18T10:44:21.933Z,100534.16
2024-03-18T10:47:12.452Z,100531.49
2024-03-18T10:50:01.165Z,100531.09
2024-03-18T10:52:48.534Z,100530.33
2024-03-18T10:55:36.885Z,100530.20
2024-03-18T10:58:27.533Z,100526.80
2024-03-18T11:01:13.967Z,100524.07
2024-03-18T11:04:00.362Z,100523.21
2024-03-18T11:06:51.299Z,100528.88
2024-03-18T11:14:29.048Z,100527.19
2024-03-18T11:17:17.369Z,100525.76
2024-03-18T11:20:04.086Z,100520.42
2024-03-18T11:23:01.158Z,100521.46
2024-03-18T11:25:56.772Z,100515.46
2024-03-18T11:28:46.762Z,100514.88
2024-03-18T11:31:35.477Z,100516.67
2024-03-18T11:34:25.342Z,100513.17
2024-03-18T11:37:17.234Z,100511.42
2024-03-18T11:40:05.625Z,100512.05
2024-03-18T11:43:03.404Z,100513.73
2024-03-18T11:45:50.552Z,100512.64
2024-03-18T11:48:39.409Z,100510.31
2024-03-18T11:51:25.619Z,100505.67
2024-03-18T11:54:12.421Z,100505.63
2024-03-18T11:57:03.640Z,100501.96
2024-03-18T11:59:51.134Z,100498.28
2024-03-18T12:02:40.268Z,100490.83
2024-03-18T12:05:26.846Z,100488.30
2024-03-18T12:08:21.677Z,100491.05
2024-03-18T12:11:08.887Z,100490.05
2024-03-18T12:13:55.176Z,100491.39
2024-03-18T12:16:45.357Z,100489.70
2024-03-18T12:19:33.599Z,100490.79
2024-03-18T12:22:26.864Z,100489.13
2024-03-18T12:25:34.404Z,100489.15
2024-03-18T12:28:33.489Z,100487.69
2024-03-18T12:31:22.632Z,100485.77
2024-03-18T12:34:10.227Z,100483.95
2024-03-18T12:36:56.609Z,100485.64
2024-03-18T12:39:49.058Z,100480.16
2024-03-18T12:42:35.540Z,100481.27
2024-03-18T12:45:29.416Z,100478.95
2024-03-18T12:48:18.783Z,100478.99
2024-03-18T12:51:08.765Z,100476.96
2024-03-18T12:53:54.694Z,100481.01
2024-03-18T12:56:41.339Z,100479.30
2024-03-18T12:59:27.371Z,100478.08
2024-03-18T13:02:15.201Z,100479.13
2024-03-18T13:05:01.916Z,100475.49
2024-03-18T13:07:48.865Z,100477.40
2024-03-18T13:10:36.422Z,100477.25
2024-03-18T13:13:26.373Z,100473.67
2024-03-18T13:16:14.231Z,100471.82
2024-03-18T13:19:00.789Z,100471.92
2024-03-18T13:21:46.939Z,100469.70
2024-03-18T13:24:36.104Z,100470.55
2024-03-18T13:31:37.670Z,100470.05
2024-03-18T13:34:24.042Z,100468.80
2024-03-18T13:37:10.403Z,100467.02
2024-03-18T13:39:56.595Z,100464.23
2024-03-18T13:42:42.700Z,100465.90
2024-03-18T13:45:28.922Z,100460.50
2024-03-18T13:48:15.332Z,100458.33
2024-03-18T13:51:01.773Z,100461.03
2024-03-18T13:53:48.596Z,100463.13
2024-03-18T13:56:35.465Z,100463.00
2024-03-18T13:59:24.059Z,100458.23
2024-03-18T14:02:16.616Z,100456.19
2024-03-18T14:05:03.068Z,100460.48
2024-03-18T14:07:50.032Z,100464.64
2024-03-18T14:10:36.438Z,100464.11
2024-03-18T14:13:23.030Z,100462.06
2024-03-18T14:16:13.920Z,100464.86
2024-03-18T14:19:02.915Z,100460.08
2024-03-18T14:21:49.234Z,100455.05
2024-03-18T14:24:37.628Z,100458.30
2024-03-18T14:27:25.184Z,100460.73
2024-03-18T14:30:12.546Z,100463.20
2024-03-18T14:32:58.777Z,100464.75
2024-03-18T14:35:45.186Z,100467.23
2024-03-18T14:38:33.698Z,100463.67
2024-03-18T14:41:20.317Z,100466.50
2024-03-18T14:44:08.357Z,100466.52
2024-03-18T14:46:54.747Z,100464.98
2024-03-18T14:49:41.214Z,100467.61
2024-03-18T14:52:27.465Z,100471.45
2024-03-18T14:55:20.528Z,100470.09
2024-03-18T14:58:08.752Z,100467.48
2024-03-18T15:00:56.009Z,100468.85
2024-03-18T15:03:42.331Z,100470.25
2024-03-18T15:06:29.013Z,100468.73
2024-03-18T15:09:15.322Z,100468.06
2024-03-18T15:12:01.357Z,100469.45
2024-03-18T15:14:49.177Z,100466.86
2024-03-18T15:17:50.958Z,100465.45
2024-03-18T15:20:37.199Z,100468.05
2024-03-18T15:23:40.197Z,100468.53
2024-03-18T15:26:47.637Z,100464.70
2024-03-18T15:29:36.223Z,100464.66
2024-03-18T15:32:23.558Z,100459.20
2024-03-18T15:35:09.983Z,100459.83
2024-03-18T15:37:56.503Z,100456.14
2024-03-18T15:40:42.754Z,100455.27
2024-03-18T15:43:28.781Z,100452.36
2024-03-18T15:46:15.864Z,100456.05
2024-03-18T15:49:03.678Z,100456.42
2024-03-18T15:51:49.863Z,100458.70
2024-03-18T15:54:36.207Z,100458.05
2024-03-18T15:57:22.681Z,100460.68
2024-03-18T16:00:19.057Z,100467.09
2024-03-18T16:03:06.860Z,100472.18
2024-03-18T16:05:53.521Z,100466.70
2024-03-18T16:08:41.295Z,100467.77
2024-03-18T16:11:29.885Z,100468.46
2024-03-18T16:14:15.969Z,100471.77
2024-03-18T16:17:04.219Z,100471.87
2024-03-18T16:19:51.765Z,100473.11
2024-03-18T16:22:38.057Z,100474.36
2024-03-18T16:25:25.968Z,100475.10
2024-03-18T16:28:11.978Z,100477.38
2024-03-18T16:30:58.755Z,100481.05
2024-03-18T16:33:44.946Z,100485.77
2024-03-18T16:36:34.139Z,100483.92
2024-03-18T16:39:22.057Z,100486.91
2024-03-18T16:42:09.849Z,100488.00
2024-03-18T16:44:56.856Z,100492.00
2024-03-18T16:47:43.119Z,100488.22
2024-03-18T16:50:29.838Z,100490.66
2024-03-18T16:53:16.176Z,100492.05
2024-03-18T16:56:02.265Z,100494.67
2024-03-18T16:58:48.544Z,100495.90
2024-03-18T17:01:34.545Z,100496.76
2024-03-18T17:04:21.639Z,100496.96
2024-03-18T17:07:08.741Z,100498.73
2024-03-18T17:09:54.661Z,100501.84
2024-03-18T17:12:40.590Z,100500.33
2024-03-18T17:15:26.617Z,100499.48
2024-03-18T17:18:13.428Z,100501.76
2024-03-18T17:20:59.665Z,100503.34
2024-03-18T17:23:46.023Z,100508.38
2024-03-18T17:26:33.761Z,100515.82
2024-03-18T17:29:20.987Z,100521.71
2024-03-18T17:32:09.735Z,100523.80
2024-03-18T17:34:59.024Z,100531.21
2024-03-18T17:40:49.205Z,100535.70
2024-03-18T17:43:35.493Z,100538.30
2024-03-18T17:46:21.349Z,100545.21
2024-03-18T17:49:07.709Z,100544.34
2024-03-18T17:51:53.764Z,100552.45
2024-03-18T17:54:41.420Z,100551.75
2024-03-18T17:57:27.766Z,100551.93
2024-03-18T18:00:14.538Z,100547.26
2024-03-18T18:03:00.774Z,100551.57
2024-03-18T18:05:47.185Z,100557.61
2024-03-18T18:08:33.557Z,100560.20
2024-03-18T18:11:22.034Z,100560.38
2024-03-18T18:14:08.643Z,100563.12
2024-03-18T18:16:54.751Z,100565.71
2024-03-18T18:19:41.387Z,100571.58
2024-03-18T18:22:30.010Z,100573.82
2024-03-18T18:25:16.092Z,100576.58
2024-03-18T18:28:02.206Z,100579.17
2024-03-18T18:30:48.320Z,100578.30
2024-03-18T18:33:34.600Z,100578.31
2024-03-18T18:36:20.694Z,100582.27
2024-03-18T18:39:08.710Z,100580.73
2024-03-18T18:41:54.667Z,100580.04
2024-03-18T18:44:40.765Z,100579.16
2024-03-18T18:47:26.940Z,100583.31
2024-03-18T18:50:15.121Z,100585.55
2024-03-18T18:53:01.536Z,100585.38
2024-03-18T18:55:52.958Z,100589.17
2024-03-18T18:58:39.550Z,100587.98
2024-03-18T19:01:25.942Z,100592.62
2024-03-18T19:04:12.796Z,100590.02
2024-03-18T19:06:59.183Z,100590.55
2024-03-18T19:09:47.766Z,100587.10
2024-03-18T19:12:34.455Z,100593.83
2024-03-18T19:15:20.772Z,100590.90
2024-03-18T19:18:09.466Z,100590.38
2024-03-18T19:20:56.739Z,100591.77
2024-03-18T19:23:42.997Z,100594.53
2024-03-18T19:26:29.561Z,100593.32
2024-03-18T19:29:16.698Z,100591.94
2024-03-18T19:32:03.247Z,100593.84
2024-03-18T19:34:50.398Z,100595.05
2024-03-18T19:37:37.360Z,100599.02
2024-03-18T19:40:25.165Z,100599.02
2024-03-18T19:43:11.909Z,100603.52
2024-03-18T19:45:58.205Z,100606.61
2024-03-18T19:48:44.809Z,100609.73
2024-03-18T19:51:31.314Z,100607.64
2024-03-18T19:54:17.435Z,100605.23
2024-03-18T19:57:04.188Z,100609.88
2024-03-18T19:59:50.397Z,100605.38
2024-03-18T20:02:36.785Z,100600.38
2024-03-18T20:05:26.408Z,100602.77
2024-03-18T20:08:13.722Z,100605.20
2024-03-18T20:11:00.077Z,100605.71
2024-03-18T20:13:46.500Z,100604.52
2024-03-18T20:16:33.964Z,100605.37
2024-03-18T20:19:20.326Z,100606.59
2024-03-18T20:22:07.119Z,100601.92
2024-03-18T20:24:53.435Z,100606.06
2024-03-18T20:27:45.516Z,100601.23
2024-03-18T20:30:31.803Z,100608.66
2024-03-18T20:33:17.824Z,100607.11
2024-03-18T20:36:04.321Z,100608.67
2024-03-18T20:38:53.089Z,100606.77
2024-03-18T20:41:41.352Z,100606.94
2024-03-18T20:44:28.452Z,100605.39
2024-03-18T20:47:15.430Z,100605.89
2024-03-18T20:50:01.467Z,100608.30
2024-03-18T20:52:48.389Z,100612.44
2024-03-18T20:55:37.133Z,100617.80
2024-03-18T20:58:53.915Z,100619.02
2024-03-18T21:01:40.790Z,100622.61
2024-03-18T21:04:26.852Z,100624.86
2024-03-18T21:07:12.894Z,100624.52
2024-03-18T21:10:00.817Z,100629.35
2024-03-18T21:12:49.249Z,100626.23
2024-03-18T21:15:39.629Z,100627.63
2024-03-18T21:18:25.711Z,100623.48
2024-03-18T21:21:14.158Z,100622.80
2024-03-18T21:24:00.305Z,100620.56
2024-03-18T21:26:47.203Z,100618.66
2024-03-18T21:29:33.198Z,100619.16
2024-03-18T21:32:19.514Z,100618.46
2024-03-18T21:35:06.370Z,100621.41
2024-03-18T21:37:52.643Z,100616.40
2024-03-18T21:40:39.113Z,100621.23
2024-03-18T21:43:25.354Z,100617.78
2024-03-18T21:46:11.767Z,100620.38
2024-03-18T21:48:58.430Z,100622.27
2024-03-18T21:51:44.697Z,100616.92
2024-03-18T21:54:35.125Z,100619.85
2024-03-18T21:57:21.404Z,100616.92
2024-03-18T22:00:12.896Z,100616.92
2024-03-18T22:02:58.861Z,100618.48
2024-03-18T22:05:44.875Z,100618.98
2024-03-18T22:08:31.875Z,100618.65
2024-03-18T22:11:18.352Z,100618.46
2024-03-18T22:14:06.263Z,100618.98
2024-03-18T22:16:52.664Z,100621.05
2024-03-18T22:19:38.858Z,100619.66
2024-03-18T22:22:25.252Z,100618.13
2024-03-18T22:25:12.984Z,100619.51
2024-03-18T22:27:59.410Z,100621.92
2024-03-18T22:30:52.895Z,100623.83
2024-03-18T22:37:53.507Z,100626.41
2024-03-18T22:40:41.426Z,100628.31
2024-03-18T22:43:30.024Z,100626.59
2024-03-18T22:46:21.788Z,100625.39
2024-03-18T22:49:13.325Z,100626.42
2024-03-18T22:52:00.073Z,100623.30
2024-03-18T22:54:46.284Z,100626.77
2024-03-18T22:57:32.419Z,100627.44
2024-03-18T23:00:21.970Z,100630.56
2024-03-18T23:03:08.825Z,100632.95
2024-03-18T23:05:55.157Z,100633.48
2024-03-18T23:13:25.795Z,100641.77
2024-03-18T23:16:11.914Z,100641.27
2024-03-18T23:18:58.478Z,100644.89
2024-03-18T23:21:44.885Z,100649.20
2024-03-18T23:24:31.139Z,100646.09
2024-03-18T23:36:34.641Z,100647.65
2024-03-18T23:39:20.760Z,100649.20
2024-03-18T23:42:07.246Z,100652.66
2024-03-18T23:44:54.938Z,100653.00
2024-03-18T23:47:41.424Z,100652.98
2024-03-18T23:55:06.929Z,100654.20
2024-03-18T23:57:53.394Z,100653.85
